Time;durP1;ratioP1;P1;durP2;ratioP2;P2;SDS_P1;SDS_P2;PMS_P1;PMS_P2;Temp;Humidity;BMP_temperature;BMP_pressure;BME280_temperature;BME280_humidity;BME280_pressure;Samples;Min_cycle;Max_cycle;Signal;HPM_P1;HPM_P2
2024/03/13 00:00:10;;;;;;;1.60;0.90;;;7.40;99.90;;;;;;5115606;28;20905;-58
2024/03/13 00:02:37;;;;;;;3.15;1.00;;;7.40;99.90;;;;;;5115316;28;20420;-59
2024/03/13 00:05:05;;;;;;;2.38;0.90;;;7.40;99.90;;;;;;5115636;28;20515;-58
2024/03/13 00:07:32;;;;;;;2.50;0.88;;;7.30;99.90;;;;;;5116374;28;20412;-59
2024/03/13 00:10:01;;;;;;;1.80;0.77;;;7.30;99.90;;;;;;5119635;28;20515;-59
2024/03/13 00:12:30;;;;;;;2.20;0.70;;;7.30;99.90;;;;;;5119735;28;20592;-58
2024/03/13 00:14:57;;;;;;;1.90;0.70;;;7.30;99.90;;;;;;5107957;28;20456;-59
2024/03/13 00:17:25;;;;;;;1.00;0.63;;;7.30;99.90;;;;;;5118400;28;20427;-59
2024/03/13 00:19:55;;;;;;;1.35;0.70;;;7.30;99.90;;;;;;5118519;28;20443;-59
2024/03/13 00:22:23;;;;;;;1.60;0.63;;;7.20;99.90;;;;;;5118789;28;20420;-60
2024/03/13 00:24:52;;;;;;;1.88;0.50;;;7.10;99.90;;;;;;5118568;28;20431;-59
2024/03/13 00:27:19;;;;;;;1.92;0.50;;;7.20;99.90;;;;;;5117607;28;20506;-61
2024/03/13 00:29:48;;;;;;;1.52;0.50;;;7.20;99.90;;;;;;5118536;28;20428;-60
2024/03/13 00:32:16;;;;;;;0.90;0.50;;;7.20;99.90;;;;;;5118499;28;20856;-59
2024/03/13 00:34:45;;;;;;;1.30;0.60;;;7.10;99.90;;;;;;5118886;28;20829;-58
2024/03/13 00:37:12;;;;;;;1.60;0.50;;;7.10;99.90;;;;;;5118006;28;20427;-59
2024/03/13 00:39:39;;;;;;;0.80;0.50;;;7.20;99.90;;;;;;5117717;28;20428;-59
2024/03/13 00:42:08;;;;;;;1.63;0.50;;;7.10;99.90;;;;;;5118067;28;20443;-60
2024/03/13 00:44:37;;;;;;;0.80;0.40;;;7.10;99.90;;;;;;5118646;28;20470;-61
2024/03/13 00:47:04;;;;;;;1.50;0.50;;;7.10;99.90;;;;;;5118208;28;20679;-61
2024/03/13 00:49:31;;;;;;;0.70;0.40;;;7.20;99.90;;;;;;5118754;28;20814;-61
2024/03/13 00:52:00;;;;;;;1.00;0.40;;;7.10;99.90;;;;;;5118589;28;20443;-61
2024/03/13 00:54:29;;;;;;;1.00;0.57;;;7.10;99.90;;;;;;5118705;28;20517;-62
2024/03/13 00:56:57;;;;;;;2.10;0.60;;;7.00;99.90;;;;;;5117723;28;20806;-62
2024/03/13 00:59:26;;;;;;;1.63;0.50;;;7.20;99.90;;;;;;5117715;28;20458;-62
2024/03/13 01:01:55;;;;;;;1.45;0.30;;;7.10;99.90;;;;;;5097747;28;20436;-62
2024/03/13 01:04:24;;;;;;;0.90;0.50;;;7.10;99.90;;;;;;5104762;28;20424;-63
2024/03/13 01:06:52;;;;;;;1.00;0.40;;;7.30;99.90;;;;;;5117688;28;20435;-63
2024/03/13 01:09:23;;;;;;;0.70;0.40;;;7.10;99.90;;;;;;5117289;28;20432;-63
2024/03/13 01:11:50;;;;;;;0.70;0.40;;;7.10;99.90;;;;;;5117378;28;20435;-63
2024/03/13 01:14:20;;;;;;;0.77;0.30;;;7.10;99.90;;;;;;5117931;28;20481;-63
2024/03/13 01:16:49;;;;;;;0.60;0.30;;;7.10;99.90;;;;;;5117265;28;20432;-63
2024/03/13 01:19:16;;;;;;;0.50;0.30;;;7.10;99.90;;;;;;5116345;28;20469;-62
2024/03/13 01:21:43;;;;;;;0.80;0.40;;;7.10;99.90;;;;;;5117752;28;20424;-63
2024/03/13 01:24:11;;;;;;;0.80;0.40;;;7.00;99.90;;;;;;5117261;28;20428;-62
2024/03/13 01:26:39;;;;;;;0.82;0.30;;;7.00;99.90;;;;;;5116911;28;20444;-62
2024/03/13 01:29:07;;;;;;;0.77;0.30;;;6.90;99.90;;;;;;5117358;28;20798;-63
2024/03/13 01:31:35;;;;;;;0.50;0.30;;;7.00;99.90;;;;;;5117029;28;20440;-62
2024/03/13 01:34:03;;;;;;;0.60;0.30;;;7.00;99.90;;;;;;5116941;28;20448;-63
2024/03/13 01:39:17;;;;;;;0.60;0.30;;;6.90;99.90;;;;;;5116701;28;20466;-64
2024/03/13 01:55:35;;;;;;;0.50;0.20;;;6.80;99.90;;;;;;5101304;28;20475;-62
2024/03/13 01:58:10;;;;;;;0.80;0.20;;;6.80;99.90;;;;;;5116542;28;20516;-62
2024/03/13 02:03:26;;;;;;;0.40;0.20;;;6.90;99.90;;;;;;5104318;28;20698;-62
2024/03/13 02:05:53;;;;;;;0.50;0.20;;;6.90;99.90;;;;;;5115354;28;20488;-62
2024/03/13 02:08:21;;;;;;;0.40;0.20;;;6.80;99.90;;;;;;5115148;28;20833;-61
2024/03/13 02:10:48;;;;;;;0.45;0.20;;;6.80;99.90;;;;;;5115516;28;20459;-61
2024/03/13 02:13:18;;;;;;;0.40;0.13;;;6.80;99.90;;;;;;5115652;28;20435;-60
2024/03/13 02:15:46;;;;;;;0.40;0.20;;;6.80;99.90;;;;;;5116327;28;20408;-61
2024/03/13 02:18:20;;;;;;;0.50;0.20;;;6.80;99.90;;;;;;5116387;28;20420;-61
2024/03/13 02:20:48;;;;;;;0.37;0.20;;;6.90;99.90;;;;;;5115097;27;20759;-61
2024/03/13 02:23:20;;;;;;;0.50;0.20;;;6.80;99.90;;;;;;5115344;28;20446;-61
2024/03/13 02:25:48;;;;;;;0.50;0.20;;;6.80;99.90;;;;;;5097689;28;20412;-61
2024/03/13 02:28:15;;;;;;;0.43;0.20;;;6.80;99.90;;;;;;5130802;27;20495;-60
2024/03/13 02:30:43;;;;;;;0.30;0.10;;;6.70;99.90;;;;;;5097793;28;20416;-59
2024/03/13 02:33:11;;;;;;;0.50;0.20;;;6.70;99.90;;;;;;5132625;27;20866;-59
2024/03/13 02:35:40;;;;;;;0.30;0.10;;;6.70;99.90;;;;;;5133465;27;20499;-59
2024/03/13 02:38:08;;;;;;;0.40;0.20;;;6.80;99.90;;;;;;5123476;27;20418;-58
2024/03/13 02:40:36;;;;;;;0.47;0.20;;;6.80;99.90;;;;;;5099042;28;20431;-59
2024/03/13 02:43:04;;;;;;;0.30;0.20;;;6.90;99.90;;;;;;5099272;28;20791;-59
2024/03/13 02:45:32;;;;;;;0.40;0.20;;;6.80;99.90;;;;;;5132641;27;20436;-59
2024/03/13 02:47:59;;;;;;;0.33;0.10;;;6.80;99.90;;;;;;5132549;27;20456;-59
2024/03/13 02:50:26;;;;;;;0.40;0.20;;;6.70;99.90;;;;;;5132523;27;20423;-59
2024/03/13 02:52:54;;;;;;;0.40;0.20;;;6.70;99.90;;;;;;5132636;27;20848;-60
2024/03/13 02:55:21;;;;;;;0.90;0.20;;;6.70;99.90;;;;;;5098710;28;20469;-58
2024/03/13 02:57:49;;;;;;;0.40;0.20;;;6.80;99.90;;;;;;5099114;28;20415;-59
2024/03/13 03:00:17;;;;;;;0.40;0.20;;;6.70;99.90;;;;;;5098547;28;20506;-61
2024/03/13 03:02:44;;;;;;;0.40;0.15;;;6.80;99.90;;;;;;5133266;27;20682;-59
2024/03/13 03:05:11;;;;;;;0.60;0.20;;;6.80;99.90;;;;;;5126848;28;20870;-59
2024/03/13 03:07:39;;;;;;;0.40;0.20;;;6.80;99.90;;;;;;5112350;28;20433;-59
2024/03/13 03:10:06;;;;;;;0.50;0.30;;;6.80;99.90;;;;;;5122223;27;20416;-59
2024/03/13 03:12:33;;;;;;;0.32;0.20;;;6.80;99.90;;;;;;5132232;27;20423;-60
2024/03/13 03:15:01;;;;;;;0.50;0.20;;;6.80;99.90;;;;;;5098782;28;20817;-59
2024/03/13 03:17:28;;;;;;;0.38;0.20;;;6.80;99.90;;;;;;5098096;28;20443;-59
2024/03/13 03:19:56;;;;;;;0.40;0.13;;;6.90;99.90;;;;;;5098696;28;20428;-59
2024/03/13 03:22:23;;;;;;;0.60;0.20;;;6.90;99.90;;;;;;5112539;28;20901;-59
2024/03/13 03:24:50;;;;;;;0.70;0.20;;;6.90;99.90;;;;;;5126187;27;20435;-59
2024/03/13 03:27:17;;;;;;;0.80;0.20;;;6.80;99.90;;;;;;5097680;28;20416;-59
2024/03/13 03:29:44;;;;;;;0.40;0.20;;;6.70;99.90;;;;;;5098576;28;20420;-59
2024/03/13 03:32:11;;;;;;;0.50;0.30;;;6.70;99.90;;;;;;5098457;28;20434;-59
2024/03/13 03:34:39;;;;;;;0.50;0.22;;;6.70;99.90;;;;;;5096317;28;20435;-59
2024/03/13 03:37:07;;;;;;;0.47;0.20;;;6.70;99.90;;;;;;5097193;28;20848;-60
2024/03/13 03:39:34;;;;;;;0.43;0.23;;;6.70;99.90;;;;;;5096694;28;20511;-59
2024/03/13 03:42:03;;;;;;;0.50;0.20;;;6.70;99.90;;;;;;5133062;27;20428;-59
2024/03/13 03:44:31;;;;;;;1.67;0.20;;;6.70;99.90;;;;;;5135852;27;20432;-59
2024/03/13 03:46:58;;;;;;;0.40;0.20;;;6.70;99.90;;;;;;5135528;27;20455;-60
2024/03/13 03:49:25;;;;;;;0.50;0.20;;;6.80;99.90;;;;;;5136417;27;20412;-60
2024/03/13 03:51:53;;;;;;;0.50;0.20;;;6.70;99.90;;;;;;5136624;27;20419;-60
2024/03/13 03:54:21;;;;;;;0.50;0.30;;;6.70;99.90;;;;;;5101065;28;20420;-60
2024/03/13 03:56:48;;;;;;;0.43;0.20;;;6.80;99.90;;;;;;5101382;28;20813;-60
2024/03/13 03:59:15;;;;;;;0.40;0.25;;;6.70;99.90;;;;;;5101046;28;20472;-60
2024/03/13 04:01:43;;;;;;;0.47;0.30;;;6.70;99.90;;;;;;5101665;28;20419;-60
2024/03/13 04:04:13;;;;;;;0.60;0.20;;;6.70;99.90;;;;;;5101486;28;20489;-60
2024/03/13 04:06:41;;;;;;;0.40;0.20;;;6.70;99.90;;;;;;5101976;28;20416;-60
2024/03/13 04:09:15;;;;;;;0.57;0.30;;;6.60;99.90;;;;;;5100097;28;20420;-60
2024/03/13 04:11:43;;;;;;;0.40;0.20;;;6.60;99.90;;;;;;5102542;28;20725;-60
2024/03/13 04:14:10;;;;;;;0.50;0.20;;;6.60;99.90;;;;;;5101772;28;20845;-60
2024/03/13 04:16:38;;;;;;;0.50;0.30;;;6.80;99.90;;;;;;5135336;27;20957;-59
2024/03/13 04:19:06;;;;;;;0.50;0.30;;;6.80;99.90;;;;;;5135467;27;20804;-59
2024/03/13 04:21:33;;;;;;;0.40;0.20;;;6.80;99.90;;;;;;5134853;27;20427;-59
2024/03/13 04:24:00;;;;;;;0.77;0.30;;;6.70;99.90;;;;;;5135603;27;20436;-59
2024/03/13 04:26:29;;;;;;;0.55;0.30;;;6.60;99.90;;;;;;5133701;27;20760;-59
2024/03/13 04:28:58;;;;;;;0.50;0.30;;;6.70;99.90;;;;;;5134771;27;20815;-59
2024/03/13 04:31:26;;;;;;;0.70;0.30;;;6.60;99.90;;;;;;5134323;27;20416;-59
2024/03/13 04:33:53;;;;;;;0.60;0.30;;;6.70;99.90;;;;;;5135011;27;20412;-58
2024/03/13 04:36:21;;;;;;;0.50;0.20;;;6.70;99.90;;;;;;5134994;27;20420;-59
2024/03/13 04:38:51;;;;;;;1.00;0.40;;;6.70;99.90;;;;;;5134780;27;20885;-58
2024/03/13 04:41:18;;;;;;;0.50;0.30;;;6.70;99.90;;;;;;5134675;27;20813;-58
2024/03/13 04:43:45;;;;;;;2.00;0.30;;;6.70;99.90;;;;;;5134967;27;20767;-58
2024/03/13 04:46:16;;;;;;;0.60;0.30;;;6.70;99.90;;;;;;5134834;27;20440;-59
2024/03/13 04:48:44;;;;;;;0.70;0.30;;;6.70;99.90;;;;;;5134966;27;20428;-58
2024/03/13 04:51:11;;;;;;;0.70;0.30;;;6.70;99.90;;;;;;5131765;27;20424;-59
2024/03/13 04:53:38;;;;;;;0.70;0.30;;;6.70;99.90;;;;;;5096102;28;20433;-59
2024/03/13 04:56:06;;;;;;;0.50;0.30;;;6.70;99.90;;;;;;5096860;28;20831;-59
2024/03/13 04:58:34;;;;;;;0.40;0.30;;;6.70;99.90;;;;;;5131201;27;20493;-59
2024/03/13 05:01:03;;;;;;;1.70;0.40;;;6.70;99.90;;;;;;5131559;27;20792;-60
2024/03/13 05:03:30;;;;;;;0.60;0.30;;;6.60;99.90;;;;;;5130354;27;20422;-59
2024/03/13 05:05:57;;;;;;;2.05;0.40;;;6.70;99.90;;;;;;5131276;27;20434;-59
2024/03/13 05:08:24;;;;;;;0.50;0.30;;;6.60;99.90;;;;;;5130784;27;20700;-59
2024/03/13 05:10:52;;;;;;;0.63;0.30;;;6.60;99.90;;;;;;5120140;27;20434;-59
2024/03/13 05:13:19;;;;;;;0.60;0.30;;;6.60;99.90;;;;;;5126150;27;20412;-59
2024/03/13 05:15:46;;;;;;;0.98;0.40;;;6.60;99.90;;;;;;5113188;27;20429;-59
2024/03/13 05:18:13;;;;;;;0.60;0.40;;;6.60;99.90;;;;;;5110760;28;20414;-60
2024/03/13 05:20:40;;;;;;;0.80;0.40;;;6.60;99.90;;;;;;5131553;27;20416;-60
2024/03/13 05:23:08;;;;;;;0.50;0.30;;;6.70;99.90;;;;;;5131877;27;20979;-59
2024/03/13 05:25:36;;;;;;;0.80;0.40;;;6.70;99.90;;;;;;5131362;27;20534;-59
2024/03/13 05:28:03;;;;;;;0.60;0.40;;;6.70;99.90;;;;;;5132270;27;20408;-60
2024/03/13 05:30:31;;;;;;;0.80;0.50;;;6.60;99.90;;;;;;5133880;27;20806;-59
2024/03/13 05:32:58;;;;;;;0.73;0.40;;;6.70;99.90;;;;;;5134643;27;20476;-60
2024/03/13 05:35:26;;;;;;;2.72;0.50;;;6.80;99.90;;;;;;5113716;28;20748;-60
2024/03/13 05:37:54;;;;;;;0.85;0.47;;;6.90;99.90;;;;;;5113800;28;20475;-59
2024/03/13 05:40:21;;;;;;;0.80;0.40;;;7.00;99.90;;;;;;5113862;28;20494;-59
2024/03/13 05:42:48;;;;;;;0.50;0.40;;;6.90;99.90;;;;;;5120506;27;20417;-59
2024/03/13 05:45:16;;;;;;;1.00;0.50;;;6.90;99.90;;;;;;5131670;27;20432;-59
2024/03/13 05:47:43;;;;;;;0.85;0.50;;;6.90;99.90;;;;;;5132635;27;20694;-59
2024/03/13 05:50:10;;;;;;;0.70;0.40;;;6.90;99.90;;;;;;5133513;27;20420;-60
2024/03/13 05:52:38;;;;;;;0.70;0.40;;;6.90;99.90;;;;;;5129199;27;20871;-59
2024/03/13 05:55:05;;;;;;;1.00;0.40;;;6.90;99.90;;;;;;5133918;27;20396;-59
2024/03/13 05:57:32;;;;;;;0.80;0.45;;;7.00;99.90;;;;;;5133627;27;20422;-59
2024/03/13 05:59:59;;;;;;;1.70;0.45;;;7.20;99.90;;;;;;5134147;27;20908;-59
2024/03/13 06:02:30;;;;;;;0.70;0.40;;;7.30;99.90;;;;;;5133506;27;20510;-60
2024/03/13 06:05:02;;;;;;;1.00;0.50;;;7.30;99.90;;;;;;5132773;27;20486;-60
2024/03/13 06:07:32;;;;;;;1.20;0.40;;;7.30;99.90;;;;;;5133293;27;20533;-59
2024/03/13 06:10:01;;;;;;;0.90;0.50;;;7.30;99.90;;;;;;5133368;27;20751;-59
2024/03/13 06:12:28;;;;;;;0.80;0.45;;;7.30;99.90;;;;;;5133643;27;20428;-60
2024/03/13 06:14:55;;;;;;;0.77;0.40;;;7.40;99.90;;;;;;5129307;27;20412;-59
2024/03/13 06:17:22;;;;;;;0.85;0.50;;;7.40;99.90;;;;;;5097145;28;20496;-59
2024/03/13 06:19:49;;;;;;;0.80;0.50;;;7.30;99.90;;;;;;5097960;28;20431;-59
2024/03/13 06:22:16;;;;;;;1.00;0.50;;;7.30;99.90;;;;;;5098179;28;20412;-59
2024/03/13 06:24:46;;;;;;;0.80;0.50;;;7.20;99.90;;;;;;5119201;27;20503;-59
2024/03/13 06:27:15;;;;;;;0.80;0.50;;;7.20;99.90;;;;;;5120184;27;20816;-59
2024/03/13 06:29:57;;;;;;;1.00;0.60;;;7.20;99.90;;;;;;5132151;27;20420;-59
2024/03/13 06:32:25;;;;;;;1.60;0.60;;;7.20;99.90;;;;;;5120145;27;20428;-59
2024/03/13 06:34:54;;;;;;;1.50;0.60;;;7.10;99.90;;;;;;5097266;28;20833;-59
2024/03/13 06:37:22;;;;;;;1.00;0.60;;;7.00;99.90;;;;;;5098841;28;20806;-59
2024/03/13 06:39:49;;;;;;;1.17;0.70;;;7.10;99.90;;;;;;5097564;28;20416;-59
2024/03/13 06:42:16;;;;;;;0.85;0.52;;;7.10;99.90;;;;;;5127294;27;20975;-59
2024/03/13 06:44:43;;;;;;;0.98;0.60;;;7.10;99.90;;;;;;5132254;27;20730;-59
2024/03/13 06:47:11;;;;;;;1.00;0.60;;;7.10;99.90;;;;;;5116966;27;20426;-59
2024/03/13 06:49:39;;;;;;;1.20;0.60;;;7.10;99.90;;;;;;5119295;27;20508;-59
2024/03/13 06:52:06;;;;;;;1.02;0.60;;;7.10;99.90;;;;;;5092507;28;20424;-60
2024/03/13 06:54:33;;;;;;;1.40;0.70;;;7.10;99.90;;;;;;5113795;28;20433;-60
2024/03/13 06:57:00;;;;;;;1.00;0.60;;;7.20;99.90;;;;;;5097357;28;20438;-59
2024/03/13 06:59:28;;;;;;;0.90;0.60;;;7.20;99.90;;;;;;5130539;27;20428;-60
2024/03/13 07:01:56;;;;;;;1.50;0.70;;;7.20;99.90;;;;;;5131808;27;20459;-60
2024/03/13 07:04:24;;;;;;;1.52;0.65;;;7.20;99.90;;;;;;5098135;28;20412;-60
2024/03/13 07:06:57;;;;;;;1.30;0.50;;;7.20;99.90;;;;;;5132231;27;20423;-60
2024/03/13 07:09:25;;;;;;;1.00;0.60;;;7.30;99.90;;;;;;5098811;28;20503;-60
2024/03/13 07:11:52;;;;;;;1.00;0.50;;;7.30;99.90;;;;;;5132550;27;20416;-60
2024/03/13 07:14:19;;;;;;;1.40;0.60;;;7.40;99.90;;;;;;5111049;28;20817;-60
2024/03/13 07:16:46;;;;;;;1.50;0.70;;;7.40;99.90;;;;;;5113234;28;20441;-60
2024/03/13 07:19:13;;;;;;;1.30;0.60;;;7.50;99.90;;;;;;5115371;28;20418;-58
2024/03/13 07:21:40;;;;;;;1.25;0.60;;;7.50;99.90;;;;;;5117056;27;20836;-60
2024/03/13 07:24:08;;;;;;;0.90;0.60;;;7.60;99.90;;;;;;5103014;28;20427;-59
2024/03/13 07:26:35;;;;;;;1.30;0.70;;;7.70;99.90;;;;;;5098947;28;20432;-59
2024/03/13 07:29:02;;;;;;;1.40;0.50;;;7.80;99.90;;;;;;5132802;27;20432;-58
2024/03/13 07:31:29;;;;;;;1.50;0.60;;;7.90;99.90;;;;;;5125601;27;20492;-59
2024/03/13 07:33:57;;;;;;;1.08;0.50;;;7.90;99.90;;;;;;5100345;28;20451;-60
2024/03/13 07:36:24;;;;;;;0.90;0.60;;;7.90;99.90;;;;;;5097558;28;20939;-60
2024/03/13 07:38:52;;;;;;;2.08;0.52;;;8.00;99.90;;;;;;5097775;28;20972;-60
2024/03/13 07:41:19;;;;;;;1.85;0.57;;;8.00;99.90;;;;;;5122871;27;20451;-60
2024/03/13 07:43:46;;;;;;;0.90;0.50;;;8.00;99.90;;;;;;5127983;27;20829;-60
2024/03/13 07:46:15;;;;;;;1.80;0.50;;;8.00;99.90;;;;;;5096713;28;20436;-60
2024/03/13 07:48:42;;;;;;;0.80;0.50;;;8.00;99.90;;;;;;5097197;28;20826;-60
2024/03/13 07:51:09;;;;;;;1.00;0.60;;;8.00;99.90;;;;;;5097728;28;20499;-60
2024/03/13 07:53:37;;;;;;;1.10;0.52;;;8.00;99.90;;;;;;5098548;28;20424;-59
2024/03/13 07:56:05;;;;;;;1.10;0.60;;;8.00;99.90;;;;;;5096578;28;20491;-59
2024/03/13 07:58:32;;;;;;;1.30;0.70;;;8.00;99.90;;;;;;5118227;27;21944;-60
2024/03/13 08:01:01;;;;;;;1.47;0.70;;;8.10;99.90;;;;;;5126976;27;20439;-59
2024/03/13 08:03:28;;;;;;;1.30;0.70;;;8.10;99.90;;;;;;5089664;28;20834;-58
2024/03/13 08:05:56;;;;;;;2.70;0.93;;;8.10;99.90;;;;;;5097858;28;20924;-60
2024/03/13 08:08:23;;;;;;;1.30;0.70;;;8.20;99.90;;;;;;5094934;27;20488;-60
2024/03/13 08:10:50;;;;;;;1.05;0.60;;;8.20;99.90;;;;;;5119584;27;20418;-60
2024/03/13 08:13:17;;;;;;;1.25;0.60;;;8.10;99.90;;;;;;5097147;27;20683;-60
2024/03/13 08:15:45;;;;;;;2.40;0.70;;;8.10;99.90;;;;;;5132245;27;20428;-60
2024/03/13 08:18:15;;;;;;;1.45;0.70;;;8.20;99.90;;;;;;5091951;28;20448;-59
2024/03/13 08:20:42;;;;;;;1.70;0.70;;;8.20;99.90;;;;;;5124011;27;20522;-60
2024/03/13 08:23:10;;;;;;;3.05;0.95;;;8.30;99.90;;;;;;5118082;27;20576;-60
2024/03/13 08:25:37;;;;;;;1.60;0.80;;;8.30;99.90;;;;;;5097351;28;20436;-60
2024/03/13 08:28:07;;;;;;;1.58;0.80;;;8.40;99.90;;;;;;5126200;27;20543;-60
2024/03/13 08:30:34;;;;;;;1.48;0.70;;;8.50;99.90;;;;;;5122720;27;20429;-60
2024/03/13 08:33:01;;;;;;;1.50;0.60;;;8.50;99.90;;;;;;5119350;27;20441;-60
2024/03/13 08:35:29;;;;;;;1.55;0.70;;;8.60;99.90;;;;;;5125033;27;20427;-60
2024/03/13 08:37:59;;;;;;;1.60;0.57;;;8.70;99.90;;;;;;5118819;27;20433;-60
2024/03/13 08:40:28;;;;;;;2.40;0.80;;;8.80;99.90;;;;;;5111385;28;20424;-60
2024/03/13 08:42:55;;;;;;;1.50;0.70;;;8.80;99.90;;;;;;5122109;27;20492;-60
2024/03/13 08:45:23;;;;;;;1.50;0.68;;;8.70;99.90;;;;;;5133103;27;20451;-62
2024/03/13 08:47:50;;;;;;;1.50;0.70;;;8.90;99.90;;;;;;5094480;28;20440;-60
2024/03/13 08:50:18;;;;;;;1.10;0.60;;;9.00;99.90;;;;;;5097313;28;20438;-61
2024/03/13 08:52:45;;;;;;;1.20;0.60;;;9.00;99.90;;;;;;5096499;28;20811;-60
2024/03/13 08:55:13;;;;;;;1.30;0.60;;;9.10;99.90;;;;;;5115804;28;20428;-60
2024/03/13 08:57:40;;;;;;;1.13;0.53;;;9.30;99.90;;;;;;5097387;28;21227;-60
2024/03/13 09:00:10;;;;;;;1.30;0.60;;;9.30;99.90;;;;;;5098889;28;20428;-60
2024/03/13 09:02:38;;;;;;;0.80;0.50;;;9.40;99.90;;;;;;5097968;28;20523;-64
2024/03/13 09:05:07;;;;;;;0.90;0.50;;;9.40;99.90;;;;;;5096555;28;20442;-63
2024/03/13 09:07:34;;;;;;;0.80;0.50;;;9.50;99.90;;;;;;5098039;28;20432;-63
2024/03/13 09:10:01;;;;;;;0.90;0.50;;;9.50;99.90;;;;;;5092025;28;20428;-62
2024/03/13 09:12:29;;;;;;;0.70;0.40;;;9.60;99.90;;;;;;5096052;28;20432;-63
2024/03/13 09:14:56;;;;;;;1.30;0.50;;;9.70;99.90;;;;;;5120711;27;20436;-63
2024/03/13 09:17:24;;;;;;;1.27;0.50;;;9.80;99.90;;;;;;5093246;28;20446;-62
2024/03/13 09:19:51;;;;;;;1.20;0.50;;;9.90;99.90;;;;;;5085430;28;20432;-63
2024/03/13 09:22:19;;;;;;;0.70;0.40;;;10.00;99.90;;;;;;5090420;28;20435;-62
2024/03/13 09:24:46;;;;;;;0.70;0.40;;;9.90;99.90;;;;;;5093908;28;20837;-63
2024/03/13 09:27:49;;;;;;;0.70;0.40;;;10.00;99.90;;;;;;5129046;27;20704;-63
2024/03/13 09:30:18;;;;;;;0.60;0.40;;;10.10;99.90;;;;;;5110777;27;20710;-62
2024/03/13 09:32:45;;;;;;;0.50;0.30;;;10.20;99.90;;;;;;5084691;28;20442;-63
2024/03/13 09:35:13;;;;;;;0.70;0.40;;;10.20;99.90;;;;;;5097173;28;20691;-63
2024/03/13 09:37:41;;;;;;;0.40;0.30;;;10.20;99.90;;;;;;5129757;27;20729;-63
2024/03/13 09:40:11;;;;;;;0.90;0.40;;;10.20;99.90;;;;;;5092091;28;20458;-63
2024/03/13 09:42:38;;;;;;;0.70;0.40;;;10.30;99.90;;;;;;5097900;28;20454;-63
2024/03/13 09:45:07;;;;;;;1.02;0.40;;;10.30;99.90;;;;;;5097755;28;20435;-63
2024/03/13 09:47:34;;;;;;;0.60;0.30;;;10.30;99.90;;;;;;5099874;28;20440;-63
2024/03/13 09:50:05;;;;;;;0.60;0.30;;;10.30;99.90;;;;;;5098411;28;20439;-62
2024/03/13 09:52:33;;;;;;;0.55;0.30;;;10.30;99.90;;;;;;5098898;28;20442;-63
2024/03/13 09:55:00;;;;;;;1.70;0.30;;;10.40;99.90;;;;;;5095529;28;20438;-63
2024/03/13 09:57:27;;;;;;;0.50;0.20;;;10.50;99.90;;;;;;5126902;27;20438;-63
2024/03/13 09:59:56;;;;;;;0.70;0.30;;;10.40;99.90;;;;;;5119614;27;20432;-63
2024/03/13 10:02:23;;;;;;;0.50;0.30;;;10.40;99.90;;;;;;5114058;27;20774;-62
2024/03/13 10:04:50;;;;;;;0.50;0.20;;;10.40;99.90;;;;;;5094133;28;20428;-63
2024/03/13 10:07:19;;;;;;;0.40;0.20;;;10.50;99.90;;;;;;5094945;28;20841;-64
2024/03/13 10:09:49;;;;;;;0.40;0.20;;;10.50;99.90;;;;;;5119799;27;20849;-63
2024/03/13 10:18:38;;;;;;;0.47;0.20;;;10.70;99.90;;;;;;5140657;27;20441;-62
2024/03/13 10:21:06;;;;;;;0.40;0.20;;;10.70;99.90;;;;;;5114480;27;20440;-61
2024/03/13 10:23:33;;;;;;;0.30;0.20;;;10.70;99.90;;;;;;5121001;27;20511;-61
2024/03/13 10:26:00;;;;;;;0.40;0.20;;;10.80;99.90;;;;;;5121778;27;20428;-61
2024/03/13 10:28:27;;;;;;;0.40;0.20;;;10.80;99.90;;;;;;5119797;27;20424;-61
2024/03/13 10:30:56;;;;;;;0.60;0.20;;;10.80;99.90;;;;;;5121935;27;20714;-61
2024/03/13 10:33:23;;;;;;;0.40;0.20;;;11.00;99.90;;;;;;5119150;27;20436;-62
2024/03/13 10:35:51;;;;;;;0.32;0.20;;;11.00;99.90;;;;;;5119114;27;20711;-61
2024/03/13 10:38:18;;;;;;;0.40;0.15;;;11.10;99.90;;;;;;5118194;27;20557;-61
2024/03/13 10:40:46;;;;;;;0.50;0.20;;;11.10;99.90;;;;;;5117162;27;20424;-60
2024/03/13 10:43:13;;;;;;;0.40;0.20;;;11.20;99.90;;;;;;5119114;27;20428;-61
2024/03/13 10:45:42;;;;;;;0.90;0.20;;;11.20;99.90;;;;;;5116077;27;20424;-61
2024/03/13 10:48:10;;;;;;;0.47;0.30;;;11.30;99.90;;;;;;5120877;27;20493;-61
2024/03/13 10:50:37;;;;;;;0.43;0.20;;;11.30;99.90;;;;;;5119140;27;20441;-60
2024/03/13 10:53:06;;;;;;;0.40;0.20;;;11.30;99.90;;;;;;5114788;27;20436;-60
2024/03/13 10:55:33;;;;;;;0.60;0.30;;;11.40;99.90;;;;;;5138569;27;20437;-60
2024/03/13 10:58:00;;;;;;;0.50;0.20;;;11.40;99.90;;;;;;5118679;27;20814;-60
2024/03/13 11:00:30;;;;;;;0.50;0.30;;;11.40;99.90;;;;;;5119497;27;20699;-60
2024/03/13 11:02:58;;;;;;;0.50;0.30;;;11.40;99.90;;;;;;5102601;27;21227;-60
2024/03/13 11:05:25;;;;;;;0.73;0.30;;;11.40;99.90;;;;;;5117275;27;20430;-61
2024/03/13 11:07:52;;;;;;;0.50;0.30;;;11.40;99.90;;;;;;5116654;27;20429;-62
2024/03/13 11:10:22;;;;;;;0.90;0.30;;;11.30;99.90;;;;;;5119352;27;20833;-58
2024/03/13 11:12:50;;;;;;;0.70;0.40;;;11.30;99.90;;;;;;5119618;27;20587;-56
2024/03/13 11:15:17;;;;;;;0.50;0.20;;;11.40;99.90;;;;;;5115411;27;20456;-54
2024/03/13 11:17:46;;;;;;;0.60;0.30;;;11.40;99.90;;;;;;5118910;27;20687;-55
2024/03/13 11:20:14;;;;;;;0.50;0.22;;;11.40;99.90;;;;;;5117431;27;20456;-56
2024/03/13 11:22:42;;;;;;;0.90;0.20;;;11.50;99.90;;;;;;5118863;27;20511;-57
2024/03/13 11:25:12;;;;;;;0.40;0.20;;;11.70;99.90;;;;;;5112018;28;20434;-57
2024/03/13 11:27:39;;;;;;;0.55;0.30;;;12.00;99.90;;;;;;5109823;27;20431;-54
2024/03/13 11:30:07;;;;;;;0.60;0.20;;;12.00;99.90;;;;;;5119581;27;20447;-57
2024/03/13 11:32:34;;;;;;;3.97;1.80;;;12.00;99.90;;;;;;5118178;27;20440;-56
2024/03/13 11:35:05;;;;;;;0.70;0.40;;;12.00;99.90;;;;;;5113813;27;20881;-56
2024/03/13 11:37:33;;;;;;;1.50;0.40;;;12.00;99.90;;;;;;5117960;27;20432;-56
2024/03/13 11:40:00;;;;;;;0.63;0.30;;;12.20;99.90;;;;;;5114756;27;20792;-57
2024/03/13 11:42:31;;;;;;;0.80;0.30;;;12.30;99.90;;;;;;5119004;27;20715;-58
2024/03/13 11:45:15;;;;;;;0.50;0.30;;;12.50;99.90;;;;;;5108671;27;20493;-58
2024/03/13 11:47:42;;;;;;;0.50;0.30;;;12.50;99.90;;;;;;5119754;27;20524;-58
2024/03/13 11:50:10;;;;;;;0.40;0.30;;;12.50;99.90;;;;;;5117937;27;20428;-55
2024/03/13 11:52:38;;;;;;;0.50;0.30;;;12.60;99.90;;;;;;5115607;27;20451;-57
2024/03/13 11:55:07;;;;;;;0.60;0.30;;;12.40;99.90;;;;;;5112887;28;20567;-57
2024/03/13 11:57:34;;;;;;;0.60;0.40;;;12.40;99.90;;;;;;5112922;27;20710;-58
2024/03/13 12:00:02;;;;;;;0.80;0.50;;;12.40;99.90;;;;;;5119789;27;20812;-58
2024/03/13 12:02:41;;;;;;;0.60;0.30;;;12.30;99.90;;;;;;5111555;27;20715;-58
2024/03/13 12:05:10;;;;;;;0.50;0.20;;;12.40;99.90;;;;;;5125478;27;20456;-58
2024/03/13 12:07:42;;;;;;;1.10;0.20;;;12.50;99.90;;;;;;5105934;27;20457;-58
2024/03/13 12:10:15;;;;;;;0.50;0.20;;;12.40;99.90;;;;;;5105892;27;20410;-58
2024/03/13 12:12:42;;;;;;;0.30;0.10;;;12.40;99.90;;;;;;5120894;27;20409;-57
2024/03/13 12:15:10;;;;;;;0.30;0.20;;;12.40;99.90;;;;;;5125871;27;20832;-57
2024/03/13 12:17:37;;;;;;;0.50;0.20;;;12.50;99.90;;;;;;5121812;27;20416;-58
2024/03/13 12:20:05;;;;;;;0.68;0.30;;;12.50;99.90;;;;;;5123016;27;20826;-58
2024/03/13 12:22:32;;;;;;;0.50;0.30;;;12.60;99.90;;;;;;5124405;27;21078;-58
2024/03/13 12:24:59;;;;;;;1.00;0.30;;;12.60;99.90;;;;;;5111061;27;20824;-64
2024/03/13 12:27:27;;;;;;;0.30;0.20;;;12.70;99.90;;;;;;5124677;27;20718;-64
2024/03/13 12:29:54;;;;;;;0.40;0.20;;;12.60;99.90;;;;;;5125302;27;20521;-63
2024/03/13 12:32:22;;;;;;;0.40;0.17;;;12.80;99.90;;;;;;5125714;27;20439;-65
2024/03/13 12:34:50;;;;;;;0.40;0.20;;;12.90;99.90;;;;;;5125509;27;20417;-64
2024/03/13 12:37:17;;;;;;;0.30;0.15;;;13.20;99.90;;;;;;5124494;27;20416;-64
2024/03/13 12:39:46;;;;;;;0.50;0.10;;;13.40;99.90;;;;;;5121898;27;20424;-65
2024/03/13 12:42:13;;;;;;;0.30;0.20;;;13.60;99.90;;;;;;5122965;27;20570;-65
2024/03/13 12:44:40;;;;;;;0.40;0.20;;;13.70;99.90;;;;;;5124632;27;20429;-65
2024/03/13 12:47:12;;;;;;;0.50;0.30;;;13.90;99.90;;;;;;5123311;27;20477;-65
2024/03/13 12:49:40;;;;;;;0.40;0.20;;;13.90;99.90;;;;;;5122074;27;20524;-65
2024/03/13 12:52:07;;;;;;;0.30;0.20;;;13.80;99.90;;;;;;5109659;27;20434;-65
2024/03/13 12:54:35;;;;;;;0.30;0.20;;;13.70;99.90;;;;;;5109558;27;20426;-65
2024/03/13 12:57:04;;;;;;;0.30;0.10;;;13.50;99.90;;;;;;5108537;27;20476;-65
2024/03/13 12:59:31;;;;;;;0.40;0.20;;;13.40;99.90;;;;;;5118185;27;20481;-65
2024/03/13 13:01:58;;;;;;;0.70;0.20;;;13.30;99.90;;;;;;5117788;27;20513;-65
2024/03/13 13:04:25;;;;;;;0.50;0.20;;;13.30;99.90;;;;;;5122948;27;20425;-65
2024/03/13 13:06:53;;;;;;;0.57;0.20;;;13.50;99.90;;;;;;5122801;27;20424;-65
2024/03/13 13:09:22;;;;;;;0.40;0.20;;;13.50;99.90;;;;;;5121583;27;20425;-65
2024/03/13 13:11:49;;;;;;;0.50;0.20;;;13.80;99.90;;;;;;5111955;27;20433;-65
2024/03/13 13:14:16;;;;;;;0.40;0.20;;;14.00;99.90;;;;;;5120636;27;20455;-65
2024/03/13 13:16:43;;;;;;;0.70;0.20;;;14.00;99.90;;;;;;5119578;27;20424;-65
2024/03/13 13:19:10;;;;;;;0.30;0.20;;;14.10;99.90;;;;;;5084316;27;20431;-65
2024/03/13 13:21:38;;;;;;;0.50;0.20;;;14.00;99.90;;;;;;5098937;27;20420;-65